createdAt,value
2018-05-07T00:01:55.559Z,98586.59
2018-05-07T00:04:23.129Z,98580.32
2018-05-07T00:06:50.611Z,98584.41
2018-05-07T00:09:18.110Z,98583.13
2018-05-07T00:11:45.788Z,98576.14
2018-05-07T00:14:13.317Z,98584.36
2018-05-07T00:16:40.795Z,98587.59
2018-05-07T00:19:08.353Z,98587.03
2018-05-07T00:21:35.845Z,98583.70
2018-05-07T00:24:03.405Z,98587.28
2018-05-07T00:26:31.069Z,98584.28
2018-05-07T00:28:58.571Z,98583.96
2018-05-07T00:31:26.066Z,98579.73
2018-05-07T00:33:53.550Z,98574.16
2018-05-07T00:36:21.022Z,98579.88
2018-05-07T00:38:48.500Z,98577.30
2018-05-07T00:41:16.005Z,98573.62
2018-05-07T00:43:43.486Z,98574.16
2018-05-07T00:46:10.960Z,98574.69
2018-05-07T00:48:38.542Z,98571.72
2018-05-07T00:51:06.044Z,98573.61
2018-05-07T00:53:33.563Z,98572.82
2018-05-07T00:56:01.029Z,98573.25
2018-05-07T00:58:28.523Z,98572.42
2018-05-07T01:00:56.139Z,98571.70
2018-05-07T01:03:23.668Z,98573.39
2018-05-07T01:05:51.190Z,98570.38
2018-05-07T01:08:18.713Z,98574.92
2018-05-07T01:10:46.249Z,98575.42
2018-05-07T01:13:13.754Z,98584.19
2018-05-07T01:15:41.294Z,98582.80
2018-05-07T01:18:08.781Z,98580.11
2018-05-07T01:20:36.318Z,98586.27
2018-05-07T01:23:03.829Z,98585.34
2018-05-07T01:25:31.321Z,98586.31
2018-05-07T01:27:58.834Z,98575.75
2018-05-07T01:30:26.342Z,98581.05
2018-05-07T01:32:53.887Z,98576.78
2018-05-07T01:35:21.360Z,98583.58
2018-05-07T01:37:48.805Z,98586.59
2018-05-07T01:40:16.312Z,98584.17
2018-05-07T01:42:43.816Z,98579.94
2018-05-07T01:45:11.276Z,98581.03
2018-05-07T01:47:38.736Z,98577.31
2018-05-07T01:50:06.304Z,98576.09
2018-05-07T01:52:33.786Z,98573.14
2018-05-07T01:55:01.236Z,98574.59
2018-05-07T01:57:28.743Z,98576.10
2018-05-07T01:59:56.224Z,98576.04
2018-05-07T02:02:23.767Z,98569.09
2018-05-07T02:04:52.233Z,98569.67
2018-05-07T02:07:19.814Z,98570.20
2018-05-07T02:09:48.253Z,98563.09
2018-05-07T02:12:15.717Z,98564.02
2018-05-07T02:14:43.206Z,98564.11
2018-05-07T02:17:10.703Z,98568.66
2018-05-07T02:19:38.232Z,98573.58
2018-05-07T02:22:05.725Z,98565.71
2018-05-07T02:24:33.226Z,98577.16
2018-05-07T02:27:00.773Z,98577.21
2018-05-07T02:29:28.269Z,98570.48
2018-05-07T02:31:55.803Z,98569.49
2018-05-07T02:34:23.454Z,98566.27
2018-05-07T02:36:50.980Z,98565.34
2018-05-07T02:39:18.521Z,98566.23
2018-05-07T02:41:46.055Z,98564.97
2018-05-07T02:44:13.568Z,98559.37
2018-05-07T02:46:41.296Z,98553.66
2018-05-07T02:49:08.943Z,98555.28
2018-05-07T02:51:36.482Z,98553.95
2018-05-07T02:54:04.066Z,98552.87
2018-05-07T02:56:32.093Z,98553.91
2018-05-07T02:58:59.630Z,98552.64
2018-05-07T03:01:27.184Z,98552.33
2018-05-07T03:03:54.723Z,98553.77
2018-05-07T03:06:22.280Z,98551.18
2018-05-07T03:08:49.801Z,98551.64
2018-05-07T03:11:17.337Z,98555.77
2018-05-07T03:13:44.850Z,98551.38
2018-05-07T03:16:12.393Z,98555.20
2018-05-07T03:18:39.919Z,98557.98
2018-05-07T03:21:07.419Z,98556.34
2018-05-07T03:23:34.921Z,98558.58
2018-05-07T03:26:02.458Z,98556.39
2018-05-07T03:28:29.995Z,98559.55
2018-05-07T03:30:57.573Z,98561.17
2018-05-07T03:33:25.092Z,98560.81
2018-05-07T03:35:52.759Z,98558.86
2018-05-07T03:38:20.308Z,98552.70
2018-05-07T03:40:47.847Z,98554.92
2018-05-07T03:43:15.389Z,98555.86
2018-05-07T03:45:42.905Z,98547.48
2018-05-07T03:48:10.451Z,98546.53
2018-05-07T03:50:37.982Z,98552.57
2018-05-07T03:53:05.513Z,98553.41
2018-05-07T03:55:33.041Z,98556.94
2018-05-07T03:58:00.558Z,98561.70
2018-05-07T04:00:28.100Z,98557.20
2018-05-07T04:02:56.464Z,98556.15
2018-05-07T04:05:24.031Z,98551.23
2018-05-07T04:07:51.547Z,98552.53
2018-05-07T04:10:19.055Z,98548.22
2018-05-07T04:12:46.597Z,98545.63
2018-05-07T04:15:14.156Z,98543.45
2018-05-07T04:17:53.833Z,98542.14
2018-05-07T04:20:33.068Z,98539.42
2018-05-07T04:23:12.485Z,98533.70
2018-05-07T04:25:40.115Z,98535.92
2018-05-07T04:28:07.695Z,98537.52
2018-05-07T04:30:35.254Z,98537.01
2018-05-07T04:33:02.797Z,98537.72
2018-05-07T04:35:30.386Z,98528.86
2018-05-07T04:37:58.029Z,98528.76
2018-05-07T04:40:25.557Z,98529.81
2018-05-07T04:42:53.140Z,98538.44
2018-05-07T04:45:20.705Z,98537.77
2018-05-07T04:47:48.460Z,98538.24
2018-05-07T04:50:16.015Z,98538.44
2018-05-07T04:52:43.535Z,98542.12
2018-05-07T04:55:11.145Z,98543.81
2018-05-07T04:57:38.605Z,98544.16
2018-05-07T05:00:06.239Z,98547.30
2018-05-07T05:02:33.903Z,98542.21
2018-05-07T05:05:01.428Z,98554.88
2018-05-07T05:07:28.976Z,98549.91
2018-05-07T05:09:56.535Z,98551.41
2018-05-07T05:12:24.095Z,98550.33
2018-05-07T05:14:51.679Z,98556.03
2018-05-07T05:17:19.270Z,98559.33
2018-05-07T05:19:46.892Z,98553.72
2018-05-07T05:22:14.493Z,98554.52
2018-05-07T05:24:42.090Z,98563.98
2018-05-07T05:27:09.596Z,98567.69
2018-05-07T05:29:37.124Z,98563.33
2018-05-07T05:32:04.644Z,98560.79
2018-05-07T05:34:32.168Z,98557.20
2018-05-07T05:36:59.791Z,98553.69
2018-05-07T05:39:27.365Z,98557.31
2018-05-07T05:41:54.943Z,98568.11
2018-05-07T05:44:22.500Z,98556.71
2018-05-07T05:46:50.071Z,98560.97
2018-05-07T05:49:17.571Z,98565.64
2018-05-07T05:51:46.012Z,98561.33
2018-05-07T05:54:13.605Z,98558.55
2018-05-07T05:56:41.285Z,98561.88
2018-05-07T05:59:08.799Z,98564.12
2018-05-07T06:01:36.349Z,98567.84
2018-05-07T06:04:03.978Z,98566.17
2018-05-07T06:06:31.447Z,98563.67
2018-05-07T06:08:59.161Z,98565.52
2018-05-07T06:11:26.642Z,98564.75
2018-05-07T06:13:54.268Z,98563.71
2018-05-07T06:16:21.778Z,98561.28
2018-05-07T06:18:49.330Z,98557.62
2018-05-07T06:21:16.895Z,98572.08
2018-05-07T06:23:44.391Z,98567.44
2018-05-07T06:26:11.967Z,98565.00
2018-05-07T06:28:39.511Z,98566.47
2018-05-07T06:31:07.008Z,98564.03
2018-05-07T06:33:34.561Z,98563.78
2018-05-07T06:36:02.111Z,98561.39
2018-05-07T06:38:29.666Z,98566.24
2018-05-07T06:40:57.222Z,98559.64
2018-05-07T06:43:24.814Z,98566.17
2018-05-07T06:45:52.376Z,98562.69
2018-05-07T06:48:20.074Z,98561.20
2018-05-07T06:50:47.651Z,98559.12
2018-05-07T06:53:15.173Z,98549.69
2018-05-07T06:55:42.678Z,98550.45
2018-05-07T06:58:11.075Z,98545.05
2018-05-07T07:00:38.836Z,98547.47
2018-05-07T07:03:06.395Z,98543.38
2018-05-07T07:05:34.036Z,98541.75
2018-05-07T07:08:01.582Z,98539.81
2018-05-07T07:10:29.128Z,98537.32
2018-05-07T07:12:56.932Z,98537.27
2018-05-07T07:15:24.522Z,98548.31
2018-05-07T07:17:52.117Z,98544.03
2018-05-07T07:20:19.639Z,98541.94
2018-05-07T07:22:47.177Z,98541.83
2018-05-07T07:25:14.687Z,98536.19
2018-05-07T07:27:42.196Z,98535.39
2018-05-07T07:30:09.774Z,98536.98
2018-05-07T07:32:37.329Z,98525.98
2018-05-07T07:35:04.925Z,98524.48
2018-05-07T07:37:32.433Z,98533.62
2018-05-07T07:39:59.963Z,98531.51
2018-05-07T07:42:27.503Z,98534.05
2018-05-07T07:44:55.041Z,98532.42
2018-05-07T07:47:22.516Z,98533.73
2018-05-07T07:49:50.072Z,98535.45
2018-05-07T07:52:17.570Z,98536.07
2018-05-07T07:54:45.143Z,98525.04
2018-05-07T07:57:12.716Z,98524.36
2018-05-07T07:59:40.290Z,98528.39
2018-05-07T08:02:08.643Z,98525.28
2018-05-07T08:04:36.288Z,98527.88
2018-05-07T08:07:03.958Z,98520.88
2018-05-07T08:09:31.463Z,98523.92
2018-05-07T08:11:59.032Z,98519.66
2018-05-07T08:14:26.569Z,98518.49
2018-05-07T08:16:54.683Z,98513.37
2018-05-07T08:19:22.200Z,98513.18
2018-05-07T08:21:49.766Z,98512.77
2018-05-07T08:24:17.398Z,98504.42
2018-05-07T08:26:45.160Z,98504.66
2018-05-07T08:29:12.684Z,98505.11
2018-05-07T08:31:40.209Z,98499.95
2018-05-07T08:34:07.718Z,98502.75
2018-05-07T08:36:35.243Z,98496.34
2018-05-07T08:39:02.827Z,98495.81
2018-05-07T08:41:30.355Z,98498.36
2018-05-07T08:43:58.000Z,98491.77
2018-05-07T08:46:25.510Z,98494.98
2018-05-07T08:48:53.232Z,98490.41
2018-05-07T08:51:20.762Z,98496.80
2018-05-07T08:53:48.294Z,98491.80
2018-05-07T08:56:15.795Z,98497.75
2018-05-07T08:58:43.579Z,98488.99
2018-05-07T09:01:11.134Z,98489.16
2018-05-07T09:03:38.683Z,98489.84
2018-05-07T09:06:06.281Z,98483.67
2018-05-07T09:08:33.998Z,98485.20
2018-05-07T09:11:01.565Z,98483.05
2018-05-07T09:13:29.081Z,98479.78
2018-05-07T09:15:56.604Z,98477.11
2018-05-07T09:18:24.221Z,98472.50
2018-05-07T09:20:51.769Z,98468.33
2018-05-07T09:23:19.500Z,98466.75
2018-05-07T09:25:47.121Z,98463.98
2018-05-07T09:28:14.633Z,98469.27
2018-05-07T09:30:42.191Z,98464.41
2018-05-07T09:33:09.704Z,98459.18
2018-05-07T09:35:37.231Z,98456.94
2018-05-07T09:38:04.750Z,98449.66
2018-05-07T09:40:32.299Z,98441.13
2018-05-07T09:42:59.980Z,98447.02
2018-05-07T09:45:27.506Z,98430.14
2018-05-07T09:47:55.017Z,98425.59
2018-05-07T09:50:22.577Z,98437.17
2018-05-07T09:52:50.699Z,98445.37
2018-05-07T09:55:18.226Z,98444.67
2018-05-07T09:57:57.885Z,98437.75
2018-05-07T10:00:40.066Z,98436.33
2018-05-07T10:03:07.749Z,98428.90
2018-05-07T10:05:35.293Z,98422.78
2018-05-07T10:08:02.824Z,98423.17
2018-05-07T10:10:30.344Z,98425.72
2018-05-07T10:12:57.903Z,98423.41
2018-05-07T10:15:25.528Z,98423.78
2018-05-07T10:17:53.066Z,98420.63
2018-05-07T10:20:20.892Z,98425.38
2018-05-07T10:22:48.500Z,98416.30
2018-05-07T10:25:16.100Z,98414.58
2018-05-07T10:27:43.626Z,98410.42
2018-05-07T10:30:11.161Z,98399.91
2018-05-07T10:32:38.688Z,98402.14
2018-05-07T10:35:06.205Z,98391.34
2018-05-07T10:37:33.843Z,98398.09
2018-05-07T10:40:01.386Z,98391.03
2018-05-07T10:42:28.926Z,98392.27
2018-05-07T10:44:56.621Z,98395.97
2018-05-07T10:47:24.322Z,98395.69
2018-05-07T10:49:51.871Z,98387.30
2018-05-07T10:52:19.379Z,98385.77
2018-05-07T10:54:46.898Z,98382.42
2018-05-07T10:57:14.483Z,98376.19
2018-05-07T10:59:42.005Z,98368.68
2018-05-07T11:02:09.556Z,98360.42
2018-05-07T11:04:37.238Z,98364.38
2018-05-07T11:07:04.754Z,98360.28
2018-05-07T11:09:32.388Z,98361.09
2018-05-07T11:12:00.003Z,98354.83
2018-05-07T11:14:27.553Z,98350.29
2018-05-07T11:16:55.276Z,98349.63
2018-05-07T11:19:22.829Z,98346.98
2018-05-07T11:21:50.362Z,98346.48
2018-05-07T11:24:17.910Z,98349.50
2018-05-07T11:26:45.471Z,98346.23
2018-05-07T11:29:12.978Z,98343.25
2018-05-07T11:31:40.559Z,98347.59
2018-05-07T11:34:08.200Z,98334.39
2018-05-07T11:36:35.738Z,98338.14
2018-05-07T11:39:03.357Z,98331.34
2018-05-07T11:41:31.097Z,98329.28
2018-05-07T11:43:58.657Z,98322.81
2018-05-07T11:46:26.460Z,98323.84
2018-05-07T11:48:54.030Z,98316.39
2018-05-07T11:51:21.584Z,98321.72
2018-05-07T11:53:49.127Z,98316.02
2018-05-07T11:56:16.644Z,98311.62
2018-05-07T11:58:44.155Z,98315.94
2018-05-07T12:01:11.707Z,98310.79
2018-05-07T12:03:39.224Z,98319.48
2018-05-07T12:06:06.849Z,98302.66
2018-05-07T12:08:34.390Z,98304.33
2018-05-07T12:11:01.919Z,98305.02
2018-05-07T12:13:29.467Z,98308.32
2018-05-07T12:15:56.998Z,98305.53
2018-05-07T12:18:24.557Z,98298.25
2018-05-07T12:20:52.106Z,98299.77
2018-05-07T12:23:19.673Z,98295.92
2018-05-07T12:25:47.213Z,98295.62
2018-05-07T12:28:14.765Z,98288.49
2018-05-07T12:30:42.816Z,98290.78
2018-05-07T12:33:10.397Z,98283.86
2018-05-07T12:35:38.029Z,98285.86
2018-05-07T12:38:05.543Z,98282.52
2018-05-07T12:40:33.059Z,98281.56
2018-05-07T12:43:00.597Z,98275.14
2018-05-07T12:45:28.114Z,98274.36
2018-05-07T12:47:55.695Z,98272.09
2018-05-07T12:50:23.227Z,98267.02
2018-05-07T12:52:50.771Z,98259.66
2018-05-07T12:55:18.296Z,98248.83
2018-05-07T12:57:45.834Z,98254.87
2018-05-07T13:00:13.453Z,98239.56
2018-05-07T13:02:40.976Z,98240.52
2018-05-07T13:05:08.544Z,98240.84
2018-05-07T13:07:36.088Z,98235.23
2018-05-07T13:10:03.655Z,98235.28
2018-05-07T13:12:31.173Z,98229.75
2018-05-07T13:14:58.703Z,98229.42
2018-05-07T13:17:26.235Z,98221.31
2018-05-07T13:19:53.727Z,98213.88
2018-05-07T13:22:21.262Z,98202.06
2018-05-07T13:24:48.783Z,98203.23
2018-05-07T13:27:16.353Z,98214.28
2018-05-07T13:29:43.898Z,98204.52
2018-05-07T13:32:11.415Z,98200.91
2018-05-07T13:34:39.099Z,98198.87
2018-05-07T13:37:06.725Z,98188.92
2018-05-07T13:39:34.259Z,98191.06
2018-05-07T13:42:02.034Z,98184.36
2018-05-07T13:44:30.350Z,98179.06
2018-05-07T13:46:57.875Z,98185.64
2018-05-07T13:49:26.157Z,98171.70
2018-05-07T13:51:53.644Z,98173.48
2018-05-07T13:57:17.537Z,98169.38
2018-05-07T13:59:44.991Z,98156.75
2018-05-07T14:02:12.429Z,98156.22
2018-05-07T14:04:39.855Z,98150.72
2018-05-07T14:07:07.291Z,98154.80
2018-05-07T14:09:34.727Z,98158.80
2018-05-07T14:12:02.323Z,98144.34
2018-05-07T14:14:29.843Z,98145.59
2018-05-07T14:16:57.271Z,98142.69
2018-05-07T14:19:24.722Z,98144.48
2018-05-07T14:21:52.192Z,98131.72
2018-05-07T14:24:19.867Z,98133.76
2018-05-07T14:26:47.337Z,98125.91
2018-05-07T14:29:14.786Z,98128.41
2018-05-07T14:31:42.230Z,98129.20
2018-05-07T14:34:09.656Z,98126.05
2018-05-07T14:36:37.117Z,98115.81
2018-05-07T14:39:05.361Z,98114.34
2018-05-07T14:41:32.794Z,98114.28
2018-05-07T14:44:00.328Z,98113.45
2018-05-07T14:46:27.772Z,98107.64
2018-05-07T14:48:55.215Z,98109.35
2018-05-07T14:51:22.734Z,98108.56
2018-05-07T14:53:50.291Z,98107.55
2018-05-07T14:56:17.756Z,98095.41
2018-05-07T14:58:45.271Z,98099.77
2018-05-07T15:01:12.775Z,98101.03
2018-05-07T15:03:40.210Z,98100.65
2018-05-07T15:06:07.851Z,98096.73
2018-05-07T15:08:35.893Z,98095.03
2018-05-07T15:11:03.337Z,98094.77
2018-05-07T15:13:31.003Z,98096.58
2018-05-07T15:15:58.437Z,98085.64
2018-05-07T15:18:25.869Z,98085.55
2018-05-07T15:20:53.311Z,98084.84
2018-05-07T15:23:20.851Z,98082.72
2018-05-07T15:25:48.233Z,98081.08
2018-05-07T15:28:15.677Z,98080.33
2018-05-07T15:30:43.105Z,98073.23
2018-05-07T15:33:10.544Z,98068.69
2018-05-07T15:35:37.990Z,98064.50
2018-05-07T15:38:05.555Z,98064.94
2018-05-07T15:40:33.024Z,98061.73
2018-05-07T15:43:00.507Z,98064.30
2018-05-07T15:45:27.929Z,98055.83
2018-05-07T15:47:55.381Z,98057.58
2018-05-07T15:50:22.829Z,98052.34
2018-05-07T15:52:50.254Z,98053.67
2018-05-07T15:55:17.693Z,98044.98
2018-05-07T15:57:45.115Z,98042.69
2018-05-07T16:00:12.547Z,98043.81
2018-05-07T16:02:41.399Z,98046.32
2018-05-07T16:05:08.845Z,98046.08
2018-05-07T16:07:36.313Z,98051.75
2018-05-07T16:10:03.743Z,98039.34
2018-05-07T16:12:31.175Z,98041.70
2018-05-07T16:14:58.836Z,98041.34
2018-05-07T16:17:26.196Z,98037.90
2018-05-07T16:19:53.618Z,98027.77
2018-05-07T16:22:21.421Z,98031.56
2018-05-07T16:24:48.742Z,98037.52
2018-05-07T16:27:16.165Z,98039.23
2018-05-07T16:29:44.273Z,98036.47
2018-05-07T16:32:11.725Z,98034.85
2018-05-07T16:34:39.155Z,98030.72
2018-05-07T16:37:06.577Z,98034.73
2018-05-07T16:39:34.051Z,98031.34
2018-05-07T16:42:01.509Z,98031.51
2018-05-07T16:44:29.766Z,98028.97
2018-05-07T16:46:57.270Z,98031.23
2018-05-07T16:49:24.744Z,98041.39
2018-05-07T16:51:52.183Z,98042.58
2018-05-07T16:54:19.639Z,98039.19
2018-05-07T16:56:47.112Z,98044.60
2018-05-07T16:59:14.545Z,98045.72
2018-05-07T17:01:41.992Z,98047.70
2018-05-07T17:04:09.456Z,98051.55
2018-05-07T17:06:36.916Z,98050.87
2018-05-07T17:09:04.388Z,98052.53
2018-05-07T17:11:31.829Z,98044.88
2018-05-07T17:13:59.260Z,98054.48
2018-05-07T17:16:26.722Z,98051.13
2018-05-07T17:18:54.219Z,98052.81
2018-05-07T17:21:21.649Z,98047.00
2018-05-07T17:23:49.087Z,98055.78
2018-05-07T17:26:16.570Z,98061.91
2018-05-07T17:28:44.046Z,98063.42
2018-05-07T17:31:11.634Z,98059.69
2018-05-07T17:33:39.232Z,98063.32
2018-05-07T17:36:06.619Z,98060.58
2018-05-07T17:38:34.072Z,98063.90
2018-05-07T17:41:01.510Z,98070.47
2018-05-07T17:43:28.975Z,98064.09
2018-05-07T17:46:08.249Z,98061.07
2018-05-07T17:48:47.472Z,98063.16
2018-05-07T17:51:14.906Z,98064.42
2018-05-07T17:53:42.395Z,98067.66
2018-05-07T17:56:09.863Z,98068.33
2018-05-07T17:58:37.346Z,98067.41
2018-05-07T18:01:04.798Z,98071.62
2018-05-07T18:03:32.248Z,98071.56
2018-05-07T18:05:59.686Z,98070.44
2018-05-07T18:08:27.113Z,98067.72
2018-05-07T18:10:54.630Z,98066.11
2018-05-07T18:13:22.124Z,98066.05
2018-05-07T18:15:49.553Z,98072.45
2018-05-07T18:18:16.983Z,98073.95
2018-05-07T18:20:44.474Z,98068.50
2018-05-07T18:23:11.946Z,98070.57
2018-05-07T18:25:39.422Z,98063.51
2018-05-07T18:28:06.857Z,98075.92
2018-05-07T18:30:34.302Z,98067.46
2018-05-07T18:33:02.166Z,98073.00
2018-05-07T18:35:29.590Z,98068.84
2018-05-07T18:37:57.201Z,98070.20
2018-05-07T18:40:24.590Z,98063.52
2018-05-07T18:42:52.026Z,98068.17
2018-05-07T18:45:19.449Z,98068.06
2018-05-07T18:47:46.882Z,98070.42
2018-05-07T18:50:14.407Z,98067.07
2018-05-07T18:52:41.974Z,98070.13
2018-05-07T18:55:09.529Z,98066.00
2018-05-07T18:57:37.069Z,98070.59
2018-05-07T19:00:04.618Z,98071.47
2018-05-07T19:02:32.094Z,98074.95
2018-05-07T19:04:59.529Z,98066.79
2018-05-07T19:07:27.127Z,98075.06
2018-05-07T19:09:54.641Z,98066.81
2018-05-07T19:12:22.106Z,98073.96
2018-05-07T19:14:49.577Z,98069.69
2018-05-07T19:17:17.220Z,98072.70
2018-05-07T19:19:44.709Z,98080.09
2018-05-07T19:22:12.167Z,98078.18
2018-05-07T19:24:39.601Z,98077.44
2018-05-07T19:27:07.045Z,98077.56
2018-05-07T19:29:34.489Z,98076.25
2018-05-07T19:32:01.973Z,98081.13
2018-05-07T19:34:29.428Z,98083.31
2018-05-07T19:36:56.866Z,98080.13
2018-05-07T19:39:24.339Z,98076.64
2018-05-07T19:41:51.843Z,98072.84
2018-05-07T19:44:19.396Z,98071.58
2018-05-07T19:46:46.938Z,98071.46
2018-05-07T19:49:14.395Z,98080.34
2018-05-07T19:51:42.488Z,98075.16
2018-05-07T19:54:10.069Z,98075.31
2018-05-07T19:56:37.499Z,98079.62
2018-05-07T19:59:04.929Z,98076.38
2018-05-07T20:01:32.364Z,98069.95
2018-05-07T20:03:59.815Z,98071.94
2018-05-07T20:06:27.618Z,98074.00
2018-05-07T20:08:55.140Z,98070.89
2018-05-07T20:11:23.292Z,98081.16
2018-05-07T20:13:50.791Z,98080.53
2018-05-07T20:16:18.432Z,98083.52
2018-05-07T20:18:45.903Z,98082.73
2018-05-07T20:21:13.477Z,98088.49
2018-05-07T20:23:40.920Z,98089.53
2018-05-07T20:26:08.375Z,98085.75
2018-05-07T20:28:35.803Z,98092.52
2018-05-07T20:31:03.318Z,98086.95
2018-05-07T20:33:30.787Z,98089.91
2018-05-07T20:35:58.226Z,98090.49
2018-05-07T20:38:25.789Z,98094.13
2018-05-07T20:40:53.242Z,98092.86
2018-05-07T20:43:20.831Z,98082.43
2018-05-07T20:45:48.335Z,98076.66
2018-05-07T20:48:15.999Z,98076.88
2018-05-07T20:50:43.378Z,98081.87
2018-05-07T20:53:10.836Z,98082.07
2018-05-07T20:55:38.282Z,98074.91
2018-05-07T20:58:05.719Z,98087.81
2018-05-07T21:00:33.179Z,98080.89
2018-05-07T21:03:00.623Z,98079.23
2018-05-07T21:05:28.202Z,98076.62
2018-05-07T21:07:55.649Z,98075.41
2018-05-07T21:10:23.124Z,98078.81
2018-05-07T21:12:50.571Z,98079.63
2018-05-07T21:15:18.006Z,98076.97
2018-05-07T21:17:45.531Z,98071.28
2018-05-07T21:20:13.059Z,98077.70
2018-05-07T21:22:40.484Z,98078.05
2018-05-07T21:25:07.936Z,98076.41
2018-05-07T21:27:35.428Z,98081.37
2018-05-07T21:30:02.909Z,98077.79
2018-05-07T21:32:30.349Z,98073.48
2018-05-07T21:34:57.783Z,98075.60
2018-05-07T21:37:25.281Z,98073.41
2018-05-07T21:39:52.731Z,98067.09
2018-05-07T21:42:20.175Z,98068.95
2018-05-07T21:44:47.653Z,98066.84
2018-05-07T21:47:15.110Z,98067.00
2018-05-07T21:49:42.572Z,98065.08
2018-05-07T21:52:10.006Z,98067.44
2018-05-07T21:54:37.491Z,98063.25
2018-05-07T21:57:04.892Z,98064.95
2018-05-07T21:59:32.395Z,98065.84
2018-05-07T22:01:59.980Z,98067.77
2018-05-07T22:04:27.430Z,98066.83
2018-05-07T22:06:55.026Z,98068.64
2018-05-07T22:09:22.588Z,98057.91
2018-05-07T22:11:50.096Z,98057.29
2018-05-07T22:14:18.145Z,98060.66
2018-05-07T22:16:45.605Z,98059.20
2018-05-07T22:19:13.038Z,98058.49
2018-05-07T22:21:40.487Z,98066.08
2018-05-07T22:24:07.984Z,98059.91
2018-05-07T22:26:35.457Z,98064.02
2018-05-07T22:29:02.901Z,98061.58
2018-05-07T22:31:30.378Z,98065.31
2018-05-07T22:33:57.906Z,98060.78
2018-05-07T22:36:25.515Z,98060.55
2018-05-07T22:38:53.022Z,98058.92
2018-05-07T22:41:20.446Z,98058.16
2018-05-07T22:43:47.897Z,98059.80
2018-05-07T22:46:15.397Z,98058.20
2018-05-07T22:48:42.828Z,98052.56
2018-05-07T22:51:10.305Z,98049.55
2018-05-07T22:53:37.749Z,98052.33
2018-05-07T22:56:05.177Z,98055.58
2018-05-07T22:58:32.688Z,98055.06
2018-05-07T23:01:00.124Z,98060.15
2018-05-07T23:03:27.557Z,98058.09
2018-05-07T23:05:55.020Z,98054.40
2018-05-07T23:08:22.505Z,98059.00
2018-05-07T23:10:49.940Z,98054.09
2018-05-07T23:13:17.364Z,98056.42
2018-05-07T23:15:44.806Z,98056.87
2018-05-07T23:18:12.243Z,98054.84
2018-05-07T23:20:39.680Z,98054.39
2018-05-07T23:23:07.126Z,98053.54
2018-05-07T23:25:34.551Z,98044.16
2018-05-07T23:28:01.995Z,98035.86
2018-05-07T23:30:29.448Z,98044.66
2018-05-07T23:32:56.889Z,98036.66
2018-05-07T23:35:24.498Z,98032.78
2018-05-07T23:37:52.017Z,98035.44
2018-05-07T23:40:19.561Z,98027.70
2018-05-07T23:42:47.006Z,98027.56
2018-05-07T23:45:14.599Z,98027.61
2018-05-07T23:47:42.042Z,98022.69
2018-05-07T23:50:09.496Z,98023.16
2018-05-07T23:52:36.943Z,98023.53
2018-05-07T23:55:04.365Z,98019.98
2018-05-07T23:57:31.794Z,98021.22
2018-05-07T23:59:59.250Z,98016.56
